createdAt,value
2023-04-08T00:02:16.614Z,20.30
2023-04-08T00:04:44.705Z,21.40
2023-04-08T00:07:12.722Z,23.10
2023-04-08T00:09:40.767Z,23.90
2023-04-08T00:12:08.857Z,24.90
2023-04-08T00:14:38.385Z,24.00
2023-04-08T00:17:06.504Z,24.40
2023-04-08T00:19:36.189Z,24.10
2023-04-08T00:22:04.286Z,24.10
2023-04-08T00:24:32.360Z,24.10
2023-04-08T00:27:00.947Z,26.90
2023-04-08T00:29:29.509Z,25.90
2023-04-08T00:31:57.494Z,26.60
2023-04-08T00:34:25.508Z,26.90
2023-04-08T00:36:54.758Z,27.90
2023-04-08T00:39:22.767Z,29.10
2023-04-08T00:41:50.931Z,28.80
2023-04-08T00:44:18.811Z,29.90
2023-04-08T00:46:47.530Z,31.70
2023-04-08T00:49:15.664Z,35.70
2023-04-08T00:51:48.635Z,31.80
2023-04-08T00:54:22.209Z,31.30
2023-04-08T01:01:01.258Z,31.80
2023-04-08T01:04:02.969Z,34.30
2023-04-08T01:07:08.498Z,36.20
2023-04-08T01:09:47.395Z,35.50
2023-04-08T01:12:29.228Z,32.30
2023-04-08T01:15:07.142Z,30.80
2023-04-08T01:17:37.436Z,29.90
2023-04-08T01:20:07.465Z,31.80
2023-04-08T01:23:25.826Z,31.20
2023-04-08T01:25:54.412Z,28.40
2023-04-08T01:28:25.274Z,29.30
2023-04-08T01:30:56.884Z,25.20
2023-04-08T01:33:27.677Z,27.50
2023-04-08T01:35:59.150Z,26.80
2023-04-08T01:38:29.332Z,28.20
2023-04-08T01:40:57.805Z,27.20
2023-04-08T01:43:27.505Z,27.90
2023-04-08T01:45:58.598Z,27.70
2023-04-08T01:48:28.327Z,29.10
2023-04-08T01:50:57.425Z,30.50
2023-04-08T01:53:25.445Z,30.40
2023-04-08T01:55:59.153Z,33.70
2023-04-08T01:58:31.469Z,31.20
2023-04-08T02:01:00.369Z,29.80
2023-04-08T02:03:30.325Z,30.20
2023-04-08T02:05:58.472Z,30.40
2023-04-08T02:08:26.331Z,32.10
2023-04-08T02:10:55.308Z,35.00
2023-04-08T02:13:23.601Z,34.30
2023-04-08T02:15:59.349Z,35.10
2023-04-08T02:18:30.092Z,34.20
2023-04-08T02:21:33.618Z,33.10
2023-04-08T02:24:08.207Z,35.60
2023-04-08T02:29:06.663Z,38.40
2023-04-08T02:31:35.518Z,34.40
2023-04-08T02:34:06.518Z,34.20
2023-04-08T02:36:34.666Z,35.00
2023-04-08T02:39:04.076Z,32.60
2023-04-08T02:41:32.082Z,38.30
2023-04-08T02:43:59.976Z,34.70
2023-04-08T02:46:27.958Z,33.50
2023-04-08T02:48:55.864Z,31.00
2023-04-08T02:51:23.793Z,31.80
2023-04-08T02:53:51.837Z,30.50
2023-04-08T02:56:20.173Z,32.10
2023-04-08T02:58:48.321Z,35.10
2023-04-08T03:01:16.557Z,34.70
2023-04-08T03:03:44.618Z,31.30
2023-04-08T03:06:12.532Z,30.80
2023-04-08T03:08:40.470Z,31.20
2023-04-08T03:11:08.515Z,29.00
2023-04-08T03:13:36.689Z,29.00
2023-04-08T03:16:04.887Z,31.80
2023-04-08T03:18:32.857Z,32.40
2023-04-08T03:21:01.578Z,30.90
2023-04-08T03:23:29.480Z,30.70
2023-04-08T03:25:57.501Z,28.00
2023-04-08T03:28:25.440Z,28.60
2023-04-08T03:30:53.432Z,29.10
2023-04-08T03:33:21.394Z,29.40
2023-04-08T03:35:49.259Z,31.40
2023-04-08T03:38:17.214Z,30.10
2023-04-08T03:40:45.229Z,29.40
2023-04-08T03:43:13.774Z,27.80
2023-04-08T03:45:41.741Z,31.40
2023-04-08T03:48:09.730Z,31.80
2023-04-08T03:50:37.642Z,33.50
2023-04-08T03:53:05.719Z,31.90
2023-04-08T03:55:33.610Z,31.80
2023-04-08T03:58:01.494Z,31.30
2023-04-08T04:00:29.786Z,31.30
2023-04-08T04:02:57.750Z,30.80
2023-04-08T04:05:25.688Z,34.00
2023-04-08T04:07:53.620Z,35.20
2023-04-08T04:10:21.487Z,36.30
2023-04-08T04:12:50.407Z,34.40
2023-04-08T04:15:18.538Z,32.30
2023-04-08T04:17:50.907Z,34.70
2023-04-08T04:20:19.182Z,31.90
2023-04-08T04:22:47.199Z,33.20
2023-04-08T04:25:15.245Z,33.30
2023-04-08T04:27:43.172Z,35.00
2023-04-08T04:30:15.455Z,40.10
2023-04-08T04:32:43.712Z,36.90
2023-04-08T04:35:13.057Z,35.70
2023-04-08T04:37:40.985Z,34.10
2023-04-08T04:40:09.403Z,34.60
2023-04-08T04:42:37.290Z,31.80
2023-04-08T04:45:05.631Z,32.80
2023-04-08T04:47:33.540Z,35.60
2023-04-08T04:50:01.849Z,33.90
2023-04-08T04:52:29.826Z,34.20
2023-04-08T04:54:58.513Z,32.30
2023-04-08T04:57:26.700Z,32.50
2023-04-08T04:59:54.620Z,29.90
2023-04-08T05:02:22.630Z,31.10
2023-04-08T05:04:53.706Z,31.50
2023-04-08T05:07:22.477Z,29.90
2023-04-08T05:09:50.774Z,29.70
2023-04-08T05:12:20.685Z,30.30
2023-04-08T05:14:48.621Z,29.20
2023-04-08T05:17:16.629Z,29.80
2023-04-08T05:19:44.569Z,30.70
2023-04-08T05:22:12.435Z,31.20
2023-04-08T05:24:40.617Z,30.80
2023-04-08T05:27:09.264Z,31.60
2023-04-08T05:29:37.186Z,29.10
2023-04-08T05:32:06.162Z,29.60
2023-04-08T05:34:34.137Z,29.70
2023-04-08T05:37:02.292Z,28.40
2023-04-08T05:39:30.262Z,30.10
2023-04-08T05:41:58.140Z,30.70
2023-04-08T05:44:26.082Z,30.70
2023-04-08T05:46:54.244Z,29.20
2023-04-08T05:49:22.188Z,29.20
2023-04-08T05:51:50.077Z,28.20
2023-04-08T05:54:17.982Z,29.00
2023-04-08T05:56:46.660Z,29.50
2023-04-08T05:59:14.599Z,31.30
2023-04-08T06:01:42.652Z,30.20
2023-04-08T06:04:10.728Z,31.10
2023-04-08T06:06:41.594Z,28.80
2023-04-08T06:09:10.232Z,31.90
2023-04-08T06:11:38.098Z,31.00
2023-04-08T06:14:06.021Z,33.20
2023-04-08T06:16:33.952Z,31.00
2023-04-08T06:19:02.049Z,31.50
2023-04-08T06:21:30.054Z,28.10
2023-04-08T06:23:57.962Z,26.40
2023-04-08T06:26:26.257Z,25.60
2023-04-08T06:28:54.242Z,28.10
2023-04-08T06:31:22.146Z,28.70
2023-04-08T06:33:50.029Z,29.70
2023-04-08T06:36:17.976Z,26.90
2023-04-08T06:38:45.928Z,29.60
2023-04-08T06:41:13.843Z,25.80
2023-04-08T06:43:41.754Z,24.60
2023-04-08T06:46:09.674Z,25.50
2023-04-08T06:48:37.919Z,25.60
2023-04-08T06:51:07.849Z,25.00
2023-04-08T06:53:35.883Z,23.80
2023-04-08T06:56:03.986Z,28.40
2023-04-08T06:58:31.953Z,24.80
2023-04-08T07:01:01.439Z,24.00
2023-04-08T07:03:29.648Z,23.70
2023-04-08T07:05:57.744Z,23.30
2023-04-08T07:08:25.859Z,23.50
2023-04-08T07:10:54.130Z,25.60
2023-04-08T07:13:23.678Z,27.60
2023-04-08T07:20:05.764Z,27.80
2023-04-08T07:22:33.638Z,25.60
2023-04-08T07:25:01.568Z,26.00
2023-04-08T07:27:29.565Z,23.80
2023-04-08T07:29:58.585Z,24.30
2023-04-08T07:32:26.713Z,22.30
2023-04-08T07:34:54.730Z,21.90
2023-04-08T07:37:22.578Z,22.40
2023-04-08T07:39:50.517Z,21.60
2023-04-08T07:42:18.703Z,25.50
2023-04-08T07:44:46.694Z,23.90
2023-04-08T07:47:14.633Z,23.00
2023-04-08T07:49:42.828Z,24.30
2023-04-08T07:52:11.032Z,26.40
2023-04-08T07:54:39.011Z,26.20
2023-04-08T07:57:06.952Z,25.00
2023-04-08T07:59:35.121Z,23.40
2023-04-08T08:02:03.475Z,25.00
2023-04-08T08:04:32.797Z,26.70
2023-04-08T08:07:00.981Z,25.60
2023-04-08T08:09:30.114Z,25.80
2023-04-08T08:11:59.050Z,25.20
2023-04-08T08:14:26.983Z,23.60
2023-04-08T08:16:55.002Z,21.70
2023-04-08T08:19:23.248Z,22.10
2023-04-08T08:21:52.325Z,21.90
2023-04-08T08:24:20.176Z,22.10
2023-04-08T08:26:49.350Z,21.90
2023-04-08T08:29:17.252Z,20.10
2023-04-08T08:31:45.216Z,22.40
2023-04-08T08:34:13.141Z,20.90
2023-04-08T08:36:41.061Z,17.90
2023-04-08T08:39:08.926Z,18.10
2023-04-08T08:41:37.864Z,17.60
2023-04-08T08:44:07.106Z,18.10
2023-04-08T08:46:35.186Z,19.40
2023-04-08T08:49:03.252Z,20.20
2023-04-08T08:51:32.942Z,20.40
2023-04-08T08:54:03.133Z,20.50
2023-04-08T08:56:33.261Z,17.70
2023-04-08T08:59:01.238Z,16.70
2023-04-08T09:01:32.560Z,16.00
2023-04-08T09:04:21.487Z,16.50
2023-04-08T09:07:04.666Z,18.90
2023-04-08T09:09:53.371Z,17.60
2023-04-08T09:12:21.800Z,17.20
2023-04-08T09:14:51.550Z,17.30
2023-04-08T09:17:34.066Z,18.70
2023-04-08T09:20:12.291Z,17.40
2023-04-08T09:23:02.401Z,18.00
2023-04-08T09:25:32.590Z,17.50
2023-04-08T09:28:02.189Z,17.70
2023-04-08T09:30:32.644Z,16.40
2023-04-08T09:33:01.536Z,16.20
2023-04-08T09:35:32.370Z,14.30
2023-04-08T09:38:01.172Z,14.20
2023-04-08T09:40:33.936Z,16.40
2023-04-08T09:43:05.735Z,15.70
2023-04-08T09:45:36.674Z,16.70
2023-04-08T09:48:14.438Z,13.60
2023-04-08T09:50:49.728Z,13.10
2023-04-08T09:53:30.256Z,19.90
2023-04-08T09:56:00.206Z,20.20
2023-04-08T09:59:03.388Z,17.90
2023-04-08T10:01:40.202Z,18.10
2023-04-08T10:04:17.526Z,17.30
2023-04-08T10:06:47.602Z,16.40
2023-04-08T10:09:16.011Z,19.10
2023-04-08T10:11:44.221Z,16.40
2023-04-08T10:14:12.748Z,20.30
2023-04-08T10:16:41.031Z,17.80
2023-04-08T10:19:43.685Z,20.20
2023-04-08T10:22:29.908Z,16.80
2023-04-08T10:25:16.712Z,14.30
2023-04-08T10:27:45.680Z,15.20
2023-04-08T10:30:34.654Z,16.10
2023-04-08T10:33:09.542Z,17.70
2023-04-08T10:35:42.631Z,17.90
2023-04-08T10:38:12.895Z,17.50
2023-04-08T10:41:40.967Z,25.00
2023-04-08T10:45:31.559Z,19.20
2023-04-08T10:49:20.527Z,21.10
2023-04-08T10:53:09.197Z,22.90
2023-04-08T10:57:22.303Z,19.90
2023-04-08T10:59:50.300Z,16.90
2023-04-08T11:02:18.422Z,17.90
2023-04-08T11:04:48.379Z,18.00
2023-04-08T11:07:16.299Z,18.40
2023-04-08T11:09:44.224Z,18.30
2023-04-08T11:12:12.520Z,17.50
2023-04-08T11:14:42.486Z,20.50
2023-04-08T11:17:10.659Z,19.10
2023-04-08T11:19:39.380Z,17.40
2023-04-08T11:22:09.539Z,17.40
2023-04-08T11:24:37.862Z,19.20
2023-04-08T11:27:08.767Z,19.30
2023-04-08T11:29:38.294Z,20.20
2023-04-08T11:32:06.352Z,20.30
2023-04-08T11:34:39.089Z,21.00
2023-04-08T11:37:07.326Z,20.00
2023-04-08T11:39:40.673Z,21.00
2023-04-08T11:42:08.824Z,19.40
2023-04-08T11:44:36.902Z,21.40
2023-04-08T11:47:04.933Z,20.80
2023-04-08T11:49:46.354Z,22.00
2023-04-08T11:52:14.828Z,20.80
2023-04-08T11:54:43.460Z,23.80
2023-04-08T11:57:11.678Z,23.00
2023-04-08T11:59:39.588Z,23.20
2023-04-08T12:02:07.971Z,23.40
2023-04-08T12:04:36.029Z,23.50
2023-04-08T12:07:04.381Z,22.10
2023-04-08T12:09:32.359Z,23.60
2023-04-08T12:12:01.354Z,23.70
2023-04-08T12:14:29.508Z,23.20
2023-04-08T12:16:57.346Z,24.00
2023-04-08T12:19:25.250Z,25.40
2023-04-08T12:21:53.156Z,25.30
2023-04-08T12:24:21.520Z,24.80
2023-04-08T12:29:53.499Z,23.20
2023-04-08T12:32:22.398Z,24.80
2023-04-08T12:34:56.952Z,24.10
2023-04-08T12:37:51.482Z,25.50
2023-04-08T12:40:19.613Z,25.20
2023-04-08T12:42:48.661Z,24.60
2023-04-08T12:45:16.646Z,24.90
2023-04-08T12:47:44.629Z,25.60
2023-04-08T12:50:12.735Z,26.90
2023-04-08T12:52:40.857Z,33.40
2023-04-08T12:55:09.156Z,29.60
2023-04-08T12:57:37.101Z,27.60
2023-04-08T13:00:05.733Z,26.50
2023-04-08T13:02:33.791Z,25.70
2023-04-08T13:05:02.054Z,26.00
2023-04-08T13:07:29.988Z,64.20
2023-04-08T13:09:57.828Z,30.90
2023-04-08T13:12:25.712Z,31.90
2023-04-08T13:14:53.649Z,31.20
2023-04-08T13:17:21.610Z,27.60
2023-04-08T13:19:50.230Z,26.50
2023-04-08T13:22:18.102Z,27.00
2023-04-08T13:24:46.875Z,28.70
2023-04-08T13:27:14.903Z,28.70
2023-04-08T13:29:43.037Z,27.80
2023-04-08T13:32:11.097Z,28.70
2023-04-08T13:34:39.053Z,26.70
2023-04-08T13:37:07.348Z,26.40
2023-04-08T13:39:35.714Z,28.10
2023-04-08T13:42:04.282Z,28.50
2023-04-08T13:44:33.382Z,28.80
2023-04-08T13:47:02.062Z,28.60
2023-04-08T13:49:30.008Z,26.50
2023-04-08T13:51:57.876Z,26.80
2023-04-08T13:54:25.982Z,28.40
2023-04-08T13:56:54.033Z,35.10
2023-04-08T13:59:21.955Z,30.40
2023-04-08T14:01:54.292Z,29.50
2023-04-08T14:04:23.269Z,29.20
2023-04-08T14:06:53.327Z,27.40
2023-04-08T14:09:21.339Z,26.90
2023-04-08T14:11:49.246Z,25.50
2023-04-08T14:14:17.187Z,26.40
2023-04-08T14:16:45.173Z,26.60
2023-04-08T14:19:13.412Z,28.10
2023-04-08T14:21:41.494Z,32.20
2023-04-08T14:24:09.709Z,29.80
2023-04-08T14:26:38.505Z,30.70
2023-04-08T14:29:07.849Z,26.70
2023-04-08T14:31:36.656Z,29.80
2023-04-08T14:34:05.087Z,26.70
2023-04-08T14:36:33.060Z,28.10
2023-04-08T14:39:01.360Z,29.10
2023-04-08T14:41:29.317Z,61.20
2023-04-08T14:44:21.927Z,33.90
2023-04-08T14:46:50.122Z,30.70
2023-04-08T14:49:18.302Z,26.20
2023-04-08T14:51:46.275Z,24.20
2023-04-08T14:54:14.426Z,26.40
2023-04-08T14:56:42.305Z,29.70
2023-04-08T14:59:10.240Z,22.90
2023-04-08T15:01:38.444Z,25.60
2023-04-08T15:04:06.644Z,22.60
2023-04-08T15:06:35.080Z,25.70
2023-04-08T15:09:03.773Z,24.70
2023-04-08T15:11:31.673Z,24.90
2023-04-08T15:13:59.556Z,23.40
2023-04-08T15:16:27.550Z,24.20
2023-04-08T15:18:55.608Z,24.90
2023-04-08T15:21:23.538Z,24.70
2023-04-08T15:23:51.719Z,24.10
2023-04-08T15:26:19.723Z,26.50
2023-04-08T15:28:47.803Z,24.40
2023-04-08T15:31:16.011Z,23.90
2023-04-08T15:33:47.040Z,24.30
2023-04-08T15:36:19.759Z,22.70
2023-04-08T15:38:48.627Z,23.90
2023-04-08T15:41:21.381Z,25.50
2023-04-08T15:43:49.428Z,26.50
2023-04-08T15:46:21.381Z,26.50
2023-04-08T15:48:51.039Z,29.40
2023-04-08T15:51:20.485Z,30.70
2023-04-08T15:53:50.490Z,36.60
2023-04-08T15:56:19.291Z,43.60
2023-04-08T15:58:47.294Z,39.50
2023-04-08T16:01:16.926Z,36.80
2023-04-08T16:03:44.889Z,32.50
2023-04-08T16:06:12.879Z,32.90
2023-04-08T16:08:40.787Z,32.50
2023-04-08T16:11:08.955Z,31.10
2023-04-08T16:13:39.248Z,31.60
2023-04-08T16:16:12.643Z,32.70
2023-04-08T16:18:47.434Z,34.00
2023-04-08T16:21:15.916Z,36.80
2023-04-08T16:23:43.845Z,35.50
2023-04-08T16:26:12.916Z,33.60
2023-04-08T16:28:40.992Z,32.70
2023-04-08T16:31:09.017Z,33.90
2023-04-08T16:33:37.344Z,36.30
2023-04-08T16:36:05.446Z,39.30
2023-04-08T16:38:33.376Z,52.40
2023-04-08T16:41:02.107Z,37.60
2023-04-08T16:43:30.058Z,40.20
2023-04-08T16:45:58.080Z,40.10
2023-04-08T16:48:26.214Z,44.20
2023-04-08T16:50:54.391Z,42.00
2023-04-08T16:53:22.372Z,44.30
2023-04-08T16:55:50.335Z,42.30
2023-04-08T16:58:18.338Z,43.50
2023-04-08T17:00:46.374Z,46.90
2023-04-08T17:03:14.535Z,38.90
2023-04-08T17:05:42.581Z,43.20
2023-04-08T17:08:10.730Z,41.70
2023-04-08T17:10:38.641Z,42.50
2023-04-08T17:13:06.819Z,46.20
2023-04-08T17:15:38.758Z,47.80
2023-04-08T17:19:24.130Z,48.80
2023-04-08T17:21:52.199Z,48.50
2023-04-08T17:24:20.705Z,53.90
2023-04-08T17:26:49.477Z,56.00
2023-04-08T17:29:17.500Z,56.00
2023-04-08T17:31:45.585Z,55.80
2023-04-08T17:34:13.549Z,63.10
2023-04-08T17:36:41.805Z,63.50
2023-04-08T17:39:09.674Z,66.50
2023-04-08T17:41:40.752Z,64.00
2023-04-08T17:44:09.372Z,63.20
2023-04-08T17:46:37.350Z,64.60
2023-04-08T17:49:05.410Z,61.80
2023-04-08T17:51:34.494Z,60.20
2023-04-08T17:54:02.587Z,60.60
2023-04-08T17:56:31.162Z,59.20
2023-04-08T17:58:59.255Z,56.10
2023-04-08T18:01:27.607Z,52.20
2023-04-08T18:03:56.272Z,49.40
2023-04-08T18:06:24.666Z,54.60
2023-04-08T18:08:52.855Z,69.80
2023-04-08T18:11:22.967Z,67.20
2023-04-08T18:13:51.278Z,66.10
2023-04-08T18:16:21.305Z,61.50
2023-04-08T18:18:49.631Z,58.50
2023-04-08T18:21:18.518Z,61.00
2023-04-08T18:23:49.512Z,87.90
2023-04-08T18:26:18.033Z,58.50
2023-04-08T18:28:46.272Z,60.90
2023-04-08T18:31:14.539Z,60.00
2023-04-08T18:33:42.760Z,58.90
2023-04-08T18:36:12.806Z,57.40
2023-04-08T18:38:42.067Z,57.80
2023-04-08T18:41:11.766Z,64.60
2023-04-08T18:43:39.961Z,64.70
2023-04-08T18:46:08.028Z,73.70
2023-04-08T18:48:36.362Z,80.50
2023-04-08T18:51:04.453Z,67.80
2023-04-08T18:53:32.563Z,66.60
2023-04-08T18:56:00.651Z,67.20
2023-04-08T18:58:29.036Z,67.30
2023-04-08T19:00:57.200Z,67.50
2023-04-08T19:03:27.282Z,74.60
2023-04-08T19:05:55.661Z,79.30
2023-04-08T19:08:23.974Z,75.50
2023-04-08T19:10:52.257Z,79.40
2023-04-08T19:13:22.284Z,77.10
2023-04-08T19:15:50.728Z,72.70
2023-04-08T19:18:19.518Z,76.70
2023-04-08T19:20:48.453Z,79.60
2023-04-08T19:23:19.006Z,73.60
2023-04-08T19:25:47.527Z,76.10
2023-04-08T19:28:15.534Z,79.90
2023-04-08T19:30:43.627Z,79.80
2023-04-08T19:33:11.616Z,79.60
2023-04-08T19:35:40.187Z,77.70
2023-04-08T19:38:08.415Z,77.50
2023-04-08T19:40:36.487Z,76.00
2023-04-08T19:43:05.297Z,79.20
2023-04-08T19:45:34.351Z,81.50
2023-04-08T19:48:02.965Z,84.90
2023-04-08T19:50:31.163Z,85.30
2023-04-08T19:52:59.170Z,87.20
2023-04-08T19:55:27.962Z,88.90
2023-04-08T19:57:56.125Z,99.00
2023-04-08T20:00:25.261Z,112.40
2023-04-08T20:02:53.487Z,109.90
2023-04-08T20:05:21.829Z,94.20
2023-04-08T20:07:49.852Z,99.00
2023-04-08T20:10:17.958Z,105.40
2023-04-08T20:12:45.914Z,96.60
2023-04-08T20:15:23.754Z,87.10
2023-04-08T20:17:53.651Z,76.00
2023-04-08T20:20:21.810Z,86.70
2023-04-08T20:22:50.607Z,88.70
2023-04-08T20:25:18.747Z,84.60
2023-04-08T20:27:46.664Z,85.00
2023-04-08T20:30:14.726Z,98.50
2023-04-08T20:32:42.717Z,97.90
2023-04-08T20:35:11.101Z,107.40
2023-04-08T20:37:39.133Z,103.50
2023-04-08T20:40:08.214Z,102.90
2023-04-08T20:42:36.594Z,119.60
2023-04-08T20:45:06.119Z,75.60
2023-04-08T20:47:34.130Z,91.40
2023-04-08T20:50:02.096Z,93.00
2023-04-08T20:52:30.029Z,81.60
2023-04-08T20:54:58.212Z,70.20
2023-04-08T20:57:26.328Z,81.10
2023-04-08T20:59:54.252Z,79.10
2023-04-08T21:02:22.953Z,101.90
2023-04-08T21:04:51.108Z,97.00
2023-04-08T21:07:19.095Z,109.50
2023-04-08T21:09:48.750Z,88.30
2023-04-08T21:12:16.658Z,79.60
2023-04-08T21:14:47.387Z,78.60
2023-04-08T21:17:15.338Z,81.10
2023-04-08T21:19:43.774Z,85.90
2023-04-08T21:22:11.752Z,89.00
2023-04-08T21:24:39.691Z,92.80
2023-04-08T21:27:07.579Z,89.70
2023-04-08T21:29:35.597Z,83.10
2023-04-08T21:36:52.189Z,79.60
2023-04-08T21:39:20.181Z,76.40
2023-04-08T21:41:48.220Z,74.30
2023-04-08T21:44:16.374Z,77.80
2023-04-08T21:46:44.446Z,81.60
2023-04-08T21:49:13.897Z,74.40
2023-04-08T21:51:41.917Z,78.80
2023-04-08T21:54:09.888Z,71.40
2023-04-08T21:56:38.678Z,62.20
2023-04-08T21:59:06.838Z,61.30
2023-04-08T22:01:34.928Z,61.80
2023-04-08T22:04:03.207Z,56.30
2023-04-08T22:06:32.963Z,60.60
2023-04-08T22:09:01.543Z,56.20
2023-04-08T22:11:29.786Z,52.20
2023-04-08T22:13:57.752Z,55.00
2023-04-08T22:16:25.726Z,57.70
2023-04-08T22:18:53.984Z,60.00
2023-04-08T22:21:23.723Z,55.10
2023-04-08T22:23:51.761Z,53.90
2023-04-08T22:26:19.752Z,55.90
2023-04-08T22:28:47.768Z,58.60
2023-04-08T22:31:15.836Z,62.80
2023-04-08T22:33:43.959Z,63.10
2023-04-08T22:36:12.036Z,55.00
2023-04-08T22:38:39.977Z,52.70
2023-04-08T22:41:20.967Z,51.40
2023-04-08T22:43:49.755Z,56.80
2023-04-08T22:46:18.686Z,58.70
2023-04-08T22:48:47.245Z,58.90
2023-04-08T22:51:15.921Z,50.40
2023-04-08T22:53:43.941Z,54.20
2023-04-08T22:56:11.901Z,51.20
2023-04-08T22:58:39.878Z,53.00
2023-04-08T23:01:22.628Z,53.20
2023-04-08T23:03:50.676Z,58.40
2023-04-08T23:06:18.886Z,65.80
2023-04-08T23:08:47.122Z,68.80
2023-04-08T23:11:15.483Z,72.10
2023-04-08T23:13:43.429Z,72.50
2023-04-08T23:16:11.445Z,67.90
2023-04-08T23:18:39.434Z,75.20
2023-04-08T23:21:07.384Z,85.20
2023-04-08T23:23:35.374Z,92.50
2023-04-08T23:26:03.244Z,106.30
2023-04-08T23:28:31.302Z,99.90
2023-04-08T23:30:59.246Z,92.60
2023-04-08T23:33:27.207Z,94.90
2023-04-08T23:35:55.418Z,88.50
2023-04-08T23:38:23.447Z,88.00
2023-04-08T23:40:51.601Z,90.90
2023-04-08T23:43:19.629Z,94.70
2023-04-08T23:45:47.635Z,93.00
2023-04-08T23:48:15.618Z,86.50
2023-04-08T23:50:43.573Z,79.60
2023-04-08T23:53:11.499Z,84.80
2023-04-08T23:55:39.420Z,83.30
2023-04-08T23:58:07.392Z,82.50
